sensor_id;sensor_type;location;lat;lon;timestamp;P1;durP1;ratioP1;P2;durP2;ratioP2
12135;SDS011;6131;56.420;15.548;2023-07-22T00:00:20;2.97;;;1.43;;
12135;SDS011;6131;56.420;15.548;2023-07-22T00:02:47;2.43;;;1.50;;
12135;SDS011;6131;56.420;15.548;2023-07-22T00:05:13;2.17;;;1.27;;
12135;SDS011;6131;56.420;15.548;2023-07-22T00:07:39;2.83;;;1.40;;
12135;SDS011;6131;56.420;15.548;2023-07-22T00:10:06;1.97;;;1.30;;
12135;SDS011;6131;56.420;15.548;2023-07-22T00:12:34;1.90;;;1.30;;
12135;SDS011;6131;56.420;15.548;2023-07-22T00:15:00;1.67;;;1.20;;
12135;SDS011;6131;56.420;15.548;2023-07-22T00:17:26;2.23;;;1.50;;
12135;SDS011;6131;56.420;15.548;2023-07-22T00:19:53;5.63;;;1.50;;
12135;SDS011;6131;56.420;15.548;2023-07-22T00:22:18;2.50;;;1.50;;
12135;SDS011;6131;56.420;15.548;2023-07-22T00:24:45;3.30;;;1.23;;
12135;SDS011;6131;56.420;15.548;2023-07-22T00:27:11;2.40;;;1.50;;
12135;SDS011;6131;56.420;15.548;2023-07-22T00:29:37;1.40;;;1.10;;
12135;SDS011;6131;56.420;15.548;2023-07-22T00:32:04;2.07;;;1.50;;
12135;SDS011;6131;56.420;15.548;2023-07-22T00:34:33;2.70;;;1.37;;
12135;SDS011;6131;56.420;15.548;2023-07-22T00:36:59;2.67;;;1.27;;
12135;SDS011;6131;56.420;15.548;2023-07-22T00:39:25;1.77;;;1.27;;
12135;SDS011;6131;56.420;15.548;2023-07-22T00:41:51;2.27;;;1.50;;
12135;SDS011;6131;56.420;15.548;2023-07-22T00:44:17;2.80;;;1.20;;
12135;SDS011;6131;56.420;15.548;2023-07-22T00:46:43;5.60;;;1.30;;
12135;SDS011;6131;56.420;15.548;2023-07-22T00:49:09;1.80;;;1.10;;
12135;SDS011;6131;56.420;15.548;2023-07-22T00:51:35;3.83;;;1.30;;
12135;SDS011;6131;56.420;15.548;2023-07-22T00:54:01;2.40;;;1.47;;
12135;SDS011;6131;56.420;15.548;2023-07-22T00:56:30;2.90;;;1.20;;
12135;SDS011;6131;56.420;15.548;2023-07-22T00:58:57;1.83;;;1.33;;
12135;SDS011;6131;56.420;15.548;2023-07-22T01:01:23;2.23;;;1.30;;
12135;SDS011;6131;56.420;15.548;2023-07-22T01:03:49;1.63;;;1.23;;
12135;SDS011;6131;56.420;15.548;2023-07-22T01:06:15;2.90;;;1.30;;
12135;SDS011;6131;56.420;15.548;2023-07-22T01:08:43;2.50;;;1.13;;
12135;SDS011;6131;56.420;15.548;2023-07-22T01:11:09;1.70;;;1.20;;
12135;SDS011;6131;56.420;15.548;2023-07-22T01:13:35;3.57;;;1.43;;
12135;SDS011;6131;56.420;15.548;2023-07-22T01:16:00;2.17;;;1.40;;
12135;SDS011;6131;56.420;15.548;2023-07-22T01:18:27;2.50;;;1.13;;
12135;SDS011;6131;56.420;15.548;2023-07-22T01:20:53;1.33;;;1.20;;
12135;SDS011;6131;56.420;15.548;2023-07-22T01:23:19;2.20;;;1.23;;
12135;SDS011;6131;56.420;15.548;2023-07-22T01:25:45;1.20;;;1.10;;
12135;SDS011;6131;56.420;15.548;2023-07-22T01:28:11;1.80;;;1.20;;
12135;SDS011;6131;56.420;15.548;2023-07-22T01:30:37;2.20;;;1.20;;
12135;SDS011;6131;56.420;15.548;2023-07-22T01:33:04;1.40;;;1.13;;
12135;SDS011;6131;56.420;15.548;2023-07-22T01:35:30;1.40;;;1.00;;
12135;SDS011;6131;56.420;15.548;2023-07-22T01:37:56;2.37;;;1.00;;
12135;SDS011;6131;56.420;15.548;2023-07-22T01:40:24;1.33;;;1.10;;
12135;SDS011;6131;56.420;15.548;2023-07-22T01:42:50;1.90;;;1.10;;
12135;SDS011;6131;56.420;15.548;2023-07-22T01:45:16;1.17;;;0.93;;
12135;SDS011;6131;56.420;15.548;2023-07-22T01:47:42;1.63;;;1.10;;
12135;SDS011;6131;56.420;15.548;2023-07-22T01:50:08;2.50;;;1.20;;
12135;SDS011;6131;56.420;15.548;2023-07-22T01:52:35;1.17;;;1.07;;
12135;SDS011;6131;56.420;15.548;2023-07-22T01:55:01;2.83;;;1.10;;
12135;SDS011;6131;56.420;15.548;2023-07-22T01:57:30;1.73;;;1.20;;
12135;SDS011;6131;56.420;15.548;2023-07-22T01:59:56;2.27;;;1.20;;
12135;SDS011;6131;56.420;15.548;2023-07-22T02:02:22;1.27;;;1.10;;
12135;SDS011;6131;56.420;15.548;2023-07-22T02:04:48;1.73;;;1.17;;
12135;SDS011;6131;56.420;15.548;2023-07-22T02:07:14;1.50;;;1.20;;
12135;SDS011;6131;56.420;15.548;2023-07-22T02:09:40;3.00;;;1.20;;
12135;SDS011;6131;56.420;15.548;2023-07-22T02:12:06;3.47;;;1.30;;
12135;SDS011;6131;56.420;15.548;2023-07-22T02:14:33;2.37;;;1.30;;
12135;SDS011;6131;56.420;15.548;2023-07-22T02:16:59;1.30;;;1.00;;
12135;SDS011;6131;56.420;15.548;2023-07-22T02:19:25;3.23;;;1.27;;
12135;SDS011;6131;56.420;15.548;2023-07-22T02:21:51;1.37;;;1.10;;
12135;SDS011;6131;56.420;15.548;2023-07-22T02:24:17;1.60;;;1.17;;
12135;SDS011;6131;56.420;15.548;2023-07-22T02:26:43;3.30;;;1.20;;
12135;SDS011;6131;56.420;15.548;2023-07-22T02:29:10;2.10;;;1.30;;
12135;SDS011;6131;56.420;15.548;2023-07-22T02:31:37;2.13;;;1.23;;
12135;SDS011;6131;56.420;15.548;2023-07-22T02:34:04;1.30;;;1.20;;
12135;SDS011;6131;56.420;15.548;2023-07-22T02:36:31;1.80;;;1.07;;
12135;SDS011;6131;56.420;15.548;2023-07-22T02:38:57;1.40;;;1.10;;
12135;SDS011;6131;56.420;15.548;2023-07-22T02:41:22;3.53;;;1.60;;
12135;SDS011;6131;56.420;15.548;2023-07-22T02:43:48;1.40;;;1.10;;
12135;SDS011;6131;56.420;15.548;2023-07-22T02:46:14;1.70;;;1.17;;
12135;SDS011;6131;56.420;15.548;2023-07-22T02:48:40;3.10;;;1.30;;
12135;SDS011;6131;56.420;15.548;2023-07-22T02:51:07;3.50;;;1.40;;
12135;SDS011;6131;56.420;15.548;2023-07-22T02:53:33;1.20;;;1.10;;
12135;SDS011;6131;56.420;15.548;2023-07-22T02:56:01;1.97;;;1.30;;
12135;SDS011;6131;56.420;15.548;2023-07-22T02:58:27;2.73;;;1.40;;
12135;SDS011;6131;56.420;15.548;2023-07-22T03:00:53;1.93;;;1.40;;
12135;SDS011;6131;56.420;15.548;2023-07-22T03:03:19;1.30;;;1.20;;
12135;SDS011;6131;56.420;15.548;2023-07-22T03:05:45;3.07;;;1.50;;
12135;SDS011;6131;56.420;15.548;2023-07-22T03:08:12;1.73;;;1.40;;
12135;SDS011;6131;56.420;15.548;2023-07-22T03:10:38;2.73;;;1.40;;
12135;SDS011;6131;56.420;15.548;2023-07-22T03:13:04;2.27;;;1.33;;
12135;SDS011;6131;56.420;15.548;2023-07-22T03:15:30;1.50;;;1.40;;
12135;SDS011;6131;56.420;15.548;2023-07-22T03:17:56;1.57;;;1.20;;
12135;SDS011;6131;56.420;15.548;2023-07-22T03:20:24;1.60;;;1.23;;
12135;SDS011;6131;56.420;15.548;2023-07-22T03:22:50;1.67;;;1.50;;
12135;SDS011;6131;56.420;15.548;2023-07-22T03:25:16;1.67;;;1.57;;
12135;SDS011;6131;56.420;15.548;2023-07-22T03:27:44;1.30;;;1.17;;
12135;SDS011;6131;56.420;15.548;2023-07-22T03:30:11;1.97;;;1.60;;
12135;SDS011;6131;56.420;15.548;2023-07-22T03:32:44;2.00;;;1.50;;
12135;SDS011;6131;56.420;15.548;2023-07-22T03:35:12;1.67;;;1.40;;
12135;SDS011;6131;56.420;15.548;2023-07-22T03:37:38;2.93;;;1.30;;
12135;SDS011;6131;56.420;15.548;2023-07-22T03:40:05;1.50;;;1.40;;
12135;SDS011;6131;56.420;15.548;2023-07-22T03:43:01;2.20;;;1.10;;
12135;SDS011;6131;56.420;15.548;2023-07-22T03:45:27;1.73;;;1.47;;
12135;SDS011;6131;56.420;15.548;2023-07-22T03:47:56;2.53;;;1.23;;
12135;SDS011;6131;56.420;15.548;2023-07-22T03:50:22;2.43;;;1.90;;
12135;SDS011;6131;56.420;15.548;2023-07-22T03:52:48;1.53;;;1.30;;
12135;SDS011;6131;56.420;15.548;2023-07-22T03:55:14;1.67;;;1.40;;
12135;SDS011;6131;56.420;15.548;2023-07-22T03:57:40;1.73;;;1.37;;
12135;SDS011;6131;56.420;15.548;2023-07-22T04:00:06;1.80;;;1.50;;
12135;SDS011;6131;56.420;15.548;2023-07-22T04:02:36;2.43;;;1.47;;
12135;SDS011;6131;56.420;15.548;2023-07-22T04:05:02;2.10;;;1.60;;
12135;SDS011;6131;56.420;15.548;2023-07-22T04:07:28;2.27;;;1.60;;
12135;SDS011;6131;56.420;15.548;2023-07-22T04:09:54;1.70;;;1.40;;
12135;SDS011;6131;56.420;15.548;2023-07-22T04:12:20;1.63;;;1.53;;
12135;SDS011;6131;56.420;15.548;2023-07-22T04:14:46;2.97;;;1.73;;
12135;SDS011;6131;56.420;15.548;2023-07-22T04:17:12;2.00;;;1.60;;
12135;SDS011;6131;56.420;15.548;2023-07-22T04:19:40;2.03;;;1.90;;
12135;SDS011;6131;56.420;15.548;2023-07-22T04:22:06;3.00;;;2.03;;
12135;SDS011;6131;56.420;15.548;2023-07-22T04:24:32;2.20;;;1.80;;
12135;SDS011;6131;56.420;15.548;2023-07-22T04:26:58;3.00;;;1.80;;
12135;SDS011;6131;56.420;15.548;2023-07-22T04:29:24;2.80;;;1.40;;
12135;SDS011;6131;56.420;15.548;2023-07-22T04:31:50;1.93;;;1.43;;
12135;SDS011;6131;56.420;15.548;2023-07-22T04:34:18;2.93;;;1.70;;
12135;SDS011;6131;56.420;15.548;2023-07-22T04:36:44;3.37;;;2.00;;
12135;SDS011;6131;56.420;15.548;2023-07-22T04:39:10;4.83;;;2.10;;
12135;SDS011;6131;56.420;15.548;2023-07-22T04:41:37;3.30;;;1.80;;
12135;SDS011;6131;56.420;15.548;2023-07-22T04:44:03;6.47;;;2.27;;
12135;SDS011;6131;56.420;15.548;2023-07-22T04:46:29;5.37;;;2.20;;
12135;SDS011;6131;56.420;15.548;2023-07-22T04:48:55;5.00;;;2.30;;
12135;SDS011;6131;56.420;15.548;2023-07-22T04:51:23;3.70;;;2.17;;
12135;SDS011;6131;56.420;15.548;2023-07-22T04:53:49;6.00;;;2.60;;
12135;SDS011;6131;56.420;15.548;2023-07-22T04:56:15;4.90;;;2.30;;
12135;SDS011;6131;56.420;15.548;2023-07-22T04:58:41;3.90;;;2.53;;
12135;SDS011;6131;56.420;15.548;2023-07-22T05:01:08;3.13;;;2.17;;
12135;SDS011;6131;56.420;15.548;2023-07-22T05:03:35;3.60;;;2.20;;
12135;SDS011;6131;56.420;15.548;2023-07-22T05:06:01;3.93;;;2.33;;
12135;SDS011;6131;56.420;15.548;2023-07-22T05:08:27;4.20;;;2.43;;
12135;SDS011;6131;56.420;15.548;2023-07-22T05:10:53;2.57;;;2.20;;
12135;SDS011;6131;56.420;15.548;2023-07-22T05:13:19;3.53;;;2.30;;
12135;SDS011;6131;56.420;15.548;2023-07-22T05:15:45;3.00;;;2.03;;
12135;SDS011;6131;56.420;15.548;2023-07-22T05:18:11;4.83;;;2.20;;
12135;SDS011;6131;56.420;15.548;2023-07-22T05:20:38;3.00;;;2.27;;
12135;SDS011;6131;56.420;15.548;2023-07-22T05:23:07;3.50;;;2.30;;
12135;SDS011;6131;56.420;15.548;2023-07-22T05:25:33;4.30;;;2.17;;
12135;SDS011;6131;56.420;15.548;2023-07-22T05:27:59;2.73;;;2.00;;
12135;SDS011;6131;56.420;15.548;2023-07-22T05:30:25;2.60;;;2.00;;
12135;SDS011;6131;56.420;15.548;2023-07-22T05:32:54;2.80;;;2.00;;
12135;SDS011;6131;56.420;15.548;2023-07-22T05:35:20;4.53;;;2.00;;
12135;SDS011;6131;56.420;15.548;2023-07-22T05:37:46;4.33;;;2.10;;
12135;SDS011;6131;56.420;15.548;2023-07-22T05:40:13;2.83;;;1.80;;
12135;SDS011;6131;56.420;15.548;2023-07-22T05:42:39;2.20;;;1.70;;
12135;SDS011;6131;56.420;15.548;2023-07-22T05:45:06;2.37;;;1.83;;
12135;SDS011;6131;56.420;15.548;2023-07-22T05:47:32;2.37;;;1.50;;
12135;SDS011;6131;56.420;15.548;2023-07-22T05:49:58;2.23;;;1.77;;
12135;SDS011;6131;56.420;15.548;2023-07-22T05:52:24;4.53;;;1.80;;
12135;SDS011;6131;56.420;15.548;2023-07-22T05:54:50;2.47;;;1.90;;
12135;SDS011;6131;56.420;15.548;2023-07-22T05:57:16;2.60;;;1.73;;
12135;SDS011;6131;56.420;15.548;2023-07-22T05:59:42;2.23;;;1.70;;
12135;SDS011;6131;56.420;15.548;2023-07-22T06:02:08;2.33;;;1.90;;
12135;SDS011;6131;56.420;15.548;2023-07-22T06:04:35;2.37;;;1.83;;
12135;SDS011;6131;56.420;15.548;2023-07-22T06:07:01;2.53;;;2.00;;
12135;SDS011;6131;56.420;15.548;2023-07-22T06:09:27;2.07;;;1.70;;
12135;SDS011;6131;56.420;15.548;2023-07-22T06:11:53;2.70;;;1.70;;
12135;SDS011;6131;56.420;15.548;2023-07-22T06:14:19;2.27;;;1.70;;
12135;SDS011;6131;56.420;15.548;2023-07-22T06:16:45;4.13;;;1.60;;
12135;SDS011;6131;56.420;15.548;2023-07-22T06:19:11;2.07;;;1.70;;
12135;SDS011;6131;56.420;15.548;2023-07-22T06:21:37;2.13;;;1.80;;
12135;SDS011;6131;56.420;15.548;2023-07-22T06:24:04;1.80;;;1.70;;
12135;SDS011;6131;56.420;15.548;2023-07-22T06:26:30;2.50;;;1.90;;
12135;SDS011;6131;56.420;15.548;2023-07-22T06:28:56;2.00;;;1.80;;
12135;SDS011;6131;56.420;15.548;2023-07-22T06:31:22;2.13;;;1.70;;
12135;SDS011;6131;56.420;15.548;2023-07-22T06:33:48;2.13;;;1.93;;
12135;SDS011;6131;56.420;15.548;2023-07-22T06:36:14;3.10;;;1.63;;
12135;SDS011;6131;56.420;15.548;2023-07-22T06:38:41;3.27;;;1.90;;
12135;SDS011;6131;56.420;15.548;2023-07-22T06:41:07;2.80;;;1.80;;
12135;SDS011;6131;56.420;15.548;2023-07-22T06:43:33;2.73;;;1.93;;
12135;SDS011;6131;56.420;15.548;2023-07-22T06:45:59;3.47;;;1.90;;
12135;SDS011;6131;56.420;15.548;2023-07-22T06:48:25;2.53;;;1.70;;
12135;SDS011;6131;56.420;15.548;2023-07-22T06:50:51;2.53;;;1.97;;
12135;SDS011;6131;56.420;15.548;2023-07-22T06:53:17;2.17;;;1.70;;
12135;SDS011;6131;56.420;15.548;2023-07-22T06:55:50;3.77;;;1.70;;
12135;SDS011;6131;56.420;15.548;2023-07-22T06:58:16;2.80;;;1.67;;
12135;SDS011;6131;56.420;15.548;2023-07-22T07:00:42;2.93;;;1.90;;
12135;SDS011;6131;56.420;15.548;2023-07-22T07:03:08;2.07;;;1.50;;
12135;SDS011;6131;56.420;15.548;2023-07-22T07:05:35;1.97;;;1.67;;
12135;SDS011;6131;56.420;15.548;2023-07-22T07:08:01;2.17;;;1.33;;
12135;SDS011;6131;56.420;15.548;2023-07-22T07:10:27;3.30;;;1.60;;
12135;SDS011;6131;56.420;15.548;2023-07-22T07:12:53;1.80;;;1.47;;
12135;SDS011;6131;56.420;15.548;2023-07-22T07:15:19;2.20;;;1.57;;
12135;SDS011;6131;56.420;15.548;2023-07-22T07:17:45;2.90;;;1.40;;
12135;SDS011;6131;56.420;15.548;2023-07-22T07:20:11;1.63;;;1.23;;
12135;SDS011;6131;56.420;15.548;2023-07-22T07:22:37;2.57;;;1.30;;
12135;SDS011;6131;56.420;15.548;2023-07-22T07:25:04;2.13;;;1.30;;
12135;SDS011;6131;56.420;15.548;2023-07-22T07:27:30;1.57;;;1.20;;
12135;SDS011;6131;56.420;15.548;2023-07-22T07:29:56;1.30;;;1.20;;
12135;SDS011;6131;56.420;15.548;2023-07-22T07:32:22;1.47;;;1.20;;
12135;SDS011;6131;56.420;15.548;2023-07-22T07:34:49;1.83;;;1.40;;
12135;SDS011;6131;56.420;15.548;2023-07-22T07:37:15;1.73;;;1.20;;
12135;SDS011;6131;56.420;15.548;2023-07-22T07:39:41;2.23;;;1.20;;
12135;SDS011;6131;56.420;15.548;2023-07-22T07:42:07;1.93;;;1.20;;
12135;SDS011;6131;56.420;15.548;2023-07-22T07:44:33;2.73;;;1.10;;
12135;SDS011;6131;56.420;15.548;2023-07-22T07:46:59;1.30;;;1.10;;
12135;SDS011;6131;56.420;15.548;2023-07-22T07:49:25;2.23;;;1.13;;
12135;SDS011;6131;56.420;15.548;2023-07-22T07:51:51;1.50;;;1.40;;
12135;SDS011;6131;56.420;15.548;2023-07-22T07:54:17;2.63;;;1.47;;
12135;SDS011;6131;56.420;15.548;2023-07-22T07:56:43;1.80;;;1.40;;
12135;SDS011;6131;56.420;15.548;2023-07-22T07:59:09;2.00;;;1.50;;
12135;SDS011;6131;56.420;15.548;2023-07-22T08:01:35;1.70;;;1.40;;
12135;SDS011;6131;56.420;15.548;2023-07-22T08:04:02;2.30;;;1.50;;
12135;SDS011;6131;56.420;15.548;2023-07-22T08:06:28;1.83;;;1.40;;
12135;SDS011;6131;56.420;15.548;2023-07-22T08:08:54;3.93;;;1.50;;
12135;SDS011;6131;56.420;15.548;2023-07-22T08:11:20;1.90;;;1.63;;
12135;SDS011;6131;56.420;15.548;2023-07-22T08:13:46;2.47;;;1.57;;
12135;SDS011;6131;56.420;15.548;2023-07-22T08:16:12;3.10;;;1.67;;
12135;SDS011;6131;56.420;15.548;2023-07-22T08:18:39;2.70;;;1.67;;
12135;SDS011;6131;56.420;15.548;2023-07-22T08:21:05;2.97;;;1.67;;
12135;SDS011;6131;56.420;15.548;2023-07-22T08:23:32;4.23;;;1.90;;
12135;SDS011;6131;56.420;15.548;2023-07-22T08:25:58;2.50;;;1.73;;
12135;SDS011;6131;56.420;15.548;2023-07-22T08:28:24;2.03;;;1.60;;
12135;SDS011;6131;56.420;15.548;2023-07-22T08:30:54;1.73;;;1.60;;
12135;SDS011;6131;56.420;15.548;2023-07-22T08:33:20;4.27;;;1.80;;
12135;SDS011;6131;56.420;15.548;2023-07-22T08:35:46;2.63;;;1.70;;
12135;SDS011;6131;56.420;15.548;2023-07-22T08:38:13;3.07;;;1.67;;
12135;SDS011;6131;56.420;15.548;2023-07-22T08:40:40;2.07;;;1.73;;
12135;SDS011;6131;56.420;15.548;2023-07-22T08:43:07;2.20;;;1.80;;
12135;SDS011;6131;56.420;15.548;2023-07-22T08:45:34;4.37;;;1.90;;
12135;SDS011;6131;56.420;15.548;2023-07-22T08:48:02;3.17;;;1.80;;
12135;SDS011;6131;56.420;15.548;2023-07-22T08:53:01;2.70;;;1.60;;
12135;SDS011;6131;56.420;15.548;2023-07-22T08:55:27;2.37;;;1.90;;
12135;SDS011;6131;56.420;15.548;2023-07-22T08:57:54;4.03;;;1.80;;
12135;SDS011;6131;56.420;15.548;2023-07-22T09:00:20;2.30;;;1.70;;
12135;SDS011;6131;56.420;15.548;2023-07-22T09:02:47;2.57;;;1.90;;
12135;SDS011;6131;56.420;15.548;2023-07-22T09:05:13;2.77;;;1.90;;
12135;SDS011;6131;56.420;15.548;2023-07-22T09:07:40;2.60;;;1.90;;
12135;SDS011;6131;56.420;15.548;2023-07-22T09:10:07;1.90;;;1.70;;
12135;SDS011;6131;56.420;15.548;2023-07-22T09:12:35;2.47;;;1.87;;
12135;SDS011;6131;56.420;15.548;2023-07-22T09:15:06;2.93;;;1.60;;
12135;SDS011;6131;56.420;15.548;2023-07-22T09:17:34;2.93;;;2.10;;
12135;SDS011;6131;56.420;15.548;2023-07-22T09:20:01;4.10;;;1.50;;
12135;SDS011;6131;56.420;15.548;2023-07-22T09:22:28;3.80;;;1.70;;
12135;SDS011;6131;56.420;15.548;2023-07-22T09:25:11;2.00;;;1.77;;
12135;SDS011;6131;56.420;15.548;2023-07-22T09:27:39;4.37;;;1.80;;
12135;SDS011;6131;56.420;15.548;2023-07-22T09:30:22;2.03;;;1.67;;
12135;SDS011;6131;56.420;15.548;2023-07-22T09:32:48;2.60;;;1.60;;
12135;SDS011;6131;56.420;15.548;2023-07-22T09:35:14;2.57;;;1.70;;
12135;SDS011;6131;56.420;15.548;2023-07-22T09:37:40;2.47;;;1.67;;
12135;SDS011;6131;56.420;15.548;2023-07-22T09:40:25;1.90;;;1.70;;
12135;SDS011;6131;56.420;15.548;2023-07-22T09:42:52;5.00;;;1.70;;
12135;SDS011;6131;56.420;15.548;2023-07-22T09:45:21;2.50;;;1.80;;
12135;SDS011;6131;56.420;15.548;2023-07-22T09:47:48;2.90;;;1.70;;
12135;SDS011;6131;56.420;15.548;2023-07-22T09:50:23;1.93;;;1.60;;
12135;SDS011;6131;56.420;15.548;2023-07-22T09:52:53;2.50;;;1.40;;
12135;SDS011;6131;56.420;15.548;2023-07-22T09:55:24;2.00;;;1.80;;
12135;SDS011;6131;56.420;15.548;2023-07-22T09:57:51;3.00;;;1.97;;
12135;SDS011;6131;56.420;15.548;2023-07-22T10:00:18;2.47;;;1.70;;
12135;SDS011;6131;56.420;15.548;2023-07-22T10:02:44;2.00;;;1.53;;
12135;SDS011;6131;56.420;15.548;2023-07-22T10:05:14;2.27;;;1.60;;
12135;SDS011;6131;56.420;15.548;2023-07-22T10:07:42;3.30;;;1.80;;
12135;SDS011;6131;56.420;15.548;2023-07-22T10:10:10;2.33;;;1.80;;
12135;SDS011;6131;56.420;15.548;2023-07-22T10:12:36;2.27;;;1.70;;
12135;SDS011;6131;56.420;15.548;2023-07-22T10:15:04;3.33;;;1.70;;
12135;SDS011;6131;56.420;15.548;2023-07-22T10:17:34;2.27;;;1.60;;
12135;SDS011;6131;56.420;15.548;2023-07-22T10:20:00;2.73;;;1.80;;
12135;SDS011;6131;56.420;15.548;2023-07-22T10:22:27;3.30;;;1.93;;
12135;SDS011;6131;56.420;15.548;2023-07-22T10:24:53;2.93;;;1.83;;
12135;SDS011;6131;56.420;15.548;2023-07-22T10:27:20;2.50;;;1.87;;
12135;SDS011;6131;56.420;15.548;2023-07-22T10:29:48;2.00;;;1.80;;
12135;SDS011;6131;56.420;15.548;2023-07-22T10:32:14;3.23;;;1.70;;
12135;SDS011;6131;56.420;15.548;2023-07-22T10:34:44;3.17;;;1.93;;
12135;SDS011;6131;56.420;15.548;2023-07-22T10:37:10;2.13;;;1.80;;
12135;SDS011;6131;56.420;15.548;2023-07-22T10:39:36;2.30;;;1.98;;
12135;SDS011;6131;56.420;15.548;2023-07-22T10:42:02;2.17;;;1.97;;
12135;SDS011;6131;56.420;15.548;2023-07-22T10:44:38;4.30;;;1.48;;
12135;SDS011;6131;56.420;15.548;2023-07-22T10:47:04;2.20;;;0.80;;
12135;SDS011;6131;56.420;15.548;2023-07-22T10:49:46;0.80;;;0.70;;
12135;SDS011;6131;56.420;15.548;2023-07-22T10:52:13;1.00;;;0.80;;
12135;SDS011;6131;56.420;15.548;2023-07-22T10:54:39;0.77;;;0.77;;
12135;SDS011;6131;56.420;15.548;2023-07-22T10:57:38;1.30;;;0.80;;
12135;SDS011;6131;56.420;15.548;2023-07-22T10:59:57;0.93;;;0.87;;
12135;SDS011;6131;56.420;15.548;2023-07-22T11:02:30;1.00;;;0.90;;
12135;SDS011;6131;56.420;15.548;2023-07-22T11:05:01;1.57;;;0.90;;
12135;SDS011;6131;56.420;15.548;2023-07-22T11:07:34;2.50;;;0.93;;
12135;SDS011;6131;56.420;15.548;2023-07-22T11:10:14;1.97;;;1.10;;
12135;SDS011;6131;56.420;15.548;2023-07-22T11:12:44;1.10;;;0.90;;
12135;SDS011;6131;56.420;15.548;2023-07-22T11:15:10;1.53;;;1.10;;
12135;SDS011;6131;56.420;15.548;2023-07-22T11:17:36;1.20;;;1.00;;
12135;SDS011;6131;56.420;15.548;2023-07-22T11:20:03;0.93;;;0.87;;
12135;SDS011;6131;56.420;15.548;2023-07-22T11:22:29;1.03;;;0.90;;
12135;SDS011;6131;56.420;15.548;2023-07-22T11:24:55;1.40;;;1.00;;
12135;SDS011;6131;56.420;15.548;2023-07-22T11:27:24;1.40;;;1.00;;
12135;SDS011;6131;56.420;15.548;2023-07-22T11:29:52;2.23;;;1.27;;
12135;SDS011;6131;56.420;15.548;2023-07-22T11:32:18;1.40;;;0.97;;
12135;SDS011;6131;56.420;15.548;2023-07-22T11:34:47;3.40;;;0.90;;
12135;SDS011;6131;56.420;15.548;2023-07-22T11:37:13;2.47;;;1.00;;
12135;SDS011;6131;56.420;15.548;2023-07-22T11:39:40;1.77;;;1.20;;
12135;SDS011;6131;56.420;15.548;2023-07-22T11:42:07;2.03;;;1.33;;
12135;SDS011;6131;56.420;15.548;2023-07-22T11:44:34;1.87;;;1.23;;
12135;SDS011;6131;56.420;15.548;2023-07-22T11:51:56;1.80;;;1.00;;
12135;SDS011;6131;56.420;15.548;2023-07-22T11:54:22;2.10;;;1.00;;
12135;SDS011;6131;56.420;15.548;2023-07-22T11:56:48;2.73;;;1.40;;
12135;SDS011;6131;56.420;15.548;2023-07-22T11:59:14;1.50;;;1.10;;
12135;SDS011;6131;56.420;15.548;2023-07-22T12:01:42;2.23;;;0.90;;
12135;SDS011;6131;56.420;15.548;2023-07-22T12:04:12;2.37;;;0.90;;
12135;SDS011;6131;56.420;15.548;2023-07-22T12:06:38;2.40;;;1.10;;
12135;SDS011;6131;56.420;15.548;2023-07-22T12:09:06;1.13;;;0.90;;
12135;SDS011;6131;56.420;15.548;2023-07-22T12:11:34;1.00;;;0.90;;
12135;SDS011;6131;56.420;15.548;2023-07-22T12:14:06;4.27;;;1.20;;
12135;SDS011;6131;56.420;15.548;2023-07-22T12:16:34;1.10;;;1.00;;
12135;SDS011;6131;56.420;15.548;2023-07-22T12:19:01;1.57;;;1.00;;
12135;SDS011;6131;56.420;15.548;2023-07-22T12:21:27;3.53;;;1.00;;
12135;SDS011;6131;56.420;15.548;2023-07-22T12:23:53;3.73;;;1.10;;
12135;SDS011;6131;56.420;15.548;2023-07-22T12:26:19;1.33;;;1.20;;
12135;SDS011;6131;56.420;15.548;2023-07-22T12:28:45;2.37;;;1.27;;
12135;SDS011;6131;56.420;15.548;2023-07-22T12:31:11;1.58;;;1.15;;
12135;SDS011;6131;56.420;15.548;2023-07-22T12:33:37;1.40;;;1.30;;
12135;SDS011;6131;56.420;15.548;2023-07-22T12:36:04;1.42;;;1.30;;
12135;SDS011;6131;56.420;15.548;2023-07-22T12:38:30;2.78;;;1.30;;
12135;SDS011;6131;56.420;15.548;2023-07-22T12:40:56;1.73;;;1.10;;
12135;SDS011;6131;56.420;15.548;2023-07-22T12:43:22;1.52;;;1.30;;
12135;SDS011;6131;56.420;15.548;2023-07-22T12:45:48;1.73;;;1.20;;
12135;SDS011;6131;56.420;15.548;2023-07-22T12:48:15;1.50;;;1.05;;
12135;SDS011;6131;56.420;15.548;2023-07-22T12:50:41;1.67;;;1.27;;
12135;SDS011;6131;56.420;15.548;2023-07-22T12:53:07;1.20;;;1.10;;
12135;SDS011;6131;56.420;15.548;2023-07-22T12:55:33;3.40;;;1.30;;
12135;SDS011;6131;56.420;15.548;2023-07-22T12:57:59;1.90;;;0.90;;
12135;SDS011;6131;56.420;15.548;2023-07-22T13:00:25;1.00;;;0.88;;
12135;SDS011;6131;56.420;15.548;2023-07-22T13:02:51;2.65;;;0.90;;
12135;SDS011;6131;56.420;15.548;2023-07-22T13:05:18;1.03;;;0.90;;
12135;SDS011;6131;56.420;15.548;2023-07-22T13:07:44;1.73;;;0.93;;
12135;SDS011;6131;56.420;15.548;2023-07-22T13:10:10;2.83;;;1.00;;
12135;SDS011;6131;56.420;15.548;2023-07-22T13:12:37;3.27;;;1.37;;
12135;SDS011;6131;56.420;15.548;2023-07-22T13:15:04;2.00;;;1.00;;
12135;SDS011;6131;56.420;15.548;2023-07-22T13:17:31;1.70;;;1.00;;
12135;SDS011;6131;56.420;15.548;2023-07-22T13:19:57;2.17;;;1.00;;
12135;SDS011;6131;56.420;15.548;2023-07-22T13:22:23;2.10;;;1.00;;
12135;SDS011;6131;56.420;15.548;2023-07-22T13:24:49;1.57;;;1.10;;
12135;SDS011;6131;56.420;15.548;2023-07-22T13:27:15;3.10;;;1.03;;
12135;SDS011;6131;56.420;15.548;2023-07-22T13:29:41;2.10;;;0.80;;
12135;SDS011;6131;56.420;15.548;2023-07-22T13:32:07;0.93;;;0.80;;
12135;SDS011;6131;56.420;15.548;2023-07-22T13:34:33;1.67;;;0.80;;
12135;SDS011;6131;56.420;15.548;2023-07-22T13:36:59;2.25;;;1.00;;
12135;SDS011;6131;56.420;15.548;2023-07-22T13:39:27;1.10;;;0.80;;
12135;SDS011;6131;56.420;15.548;2023-07-22T13:41:53;2.63;;;0.88;;
12135;SDS011;6131;56.420;15.548;2023-07-22T13:44:19;1.48;;;0.80;;
12135;SDS011;6131;56.420;15.548;2023-07-22T13:46:45;1.42;;;0.85;;
12135;SDS011;6131;56.420;15.548;2023-07-22T13:49:12;1.92;;;0.90;;
12135;SDS011;6131;56.420;15.548;2023-07-22T13:51:40;1.98;;;1.00;;
12135;SDS011;6131;56.420;15.548;2023-07-22T13:54:06;2.25;;;0.93;;
12135;SDS011;6131;56.420;15.548;2023-07-22T13:56:32;2.25;;;0.90;;
12135;SDS011;6131;56.420;15.548;2023-07-22T13:58:59;0.85;;;0.80;;
12135;SDS011;6131;56.420;15.548;2023-07-22T14:01:26;1.17;;;0.98;;
12135;SDS011;6131;56.420;15.548;2023-07-22T14:03:53;1.65;;;0.95;;
12135;SDS011;6131;56.420;15.548;2023-07-22T14:06:19;1.10;;;0.85;;
12135;SDS011;6131;56.420;15.548;2023-07-22T14:08:46;1.55;;;0.73;;
12135;SDS011;6131;56.420;15.548;2023-07-22T14:11:12;1.00;;;0.70;;
12135;SDS011;6131;56.420;15.548;2023-07-22T14:13:38;1.77;;;0.70;;
12135;SDS011;6131;56.420;15.548;2023-07-22T14:16:04;2.90;;;0.80;;
12135;SDS011;6131;56.420;15.548;2023-07-22T14:18:30;0.80;;;0.60;;
12135;SDS011;6131;56.420;15.548;2023-07-22T14:20:56;1.23;;;0.80;;
12135;SDS011;6131;56.420;15.548;2023-07-22T14:23:22;0.90;;;0.80;;
12135;SDS011;6131;56.420;15.548;2023-07-22T14:25:48;1.73;;;0.90;;
12135;SDS011;6131;56.420;15.548;2023-07-22T14:28:14;1.10;;;1.00;;
12135;SDS011;6131;56.420;15.548;2023-07-22T14:30:40;1.55;;;0.80;;
12135;SDS011;6131;56.420;15.548;2023-07-22T14:33:06;1.52;;;0.75;;
12135;SDS011;6131;56.420;15.548;2023-07-22T14:35:32;1.20;;;0.60;;
12135;SDS011;6131;56.420;15.548;2023-07-22T14:37:59;1.60;;;0.80;;
12135;SDS011;6131;56.420;15.548;2023-07-22T14:40:25;0.88;;;0.80;;
12135;SDS011;6131;56.420;15.548;2023-07-22T14:42:51;1.20;;;0.80;;
12135;SDS011;6131;56.420;15.548;2023-07-22T14:45:18;0.90;;;0.70;;
12135;SDS011;6131;56.420;15.548;2023-07-22T14:47:44;1.40;;;0.98;;
12135;SDS011;6131;56.420;15.548;2023-07-22T14:50:10;1.65;;;0.90;;
12135;SDS011;6131;56.420;15.548;2023-07-22T14:52:36;1.58;;;0.80;;